sensor_id;sensor_type;location;lat;lon;timestamp;pressure;altitude;pressure_sealevel;temperature;humidity
39363;BME280;25088;43.238;23.110;2023-05-24T00:01:30;96248.56;;;14.43;93.40
39363;BME280;25088;43.238;23.110;2023-05-24T00:03:55;96244.50;;;14.35;95.40
39363;BME280;25088;43.238;23.110;2023-05-24T00:06:23;96249.97;;;14.35;95.70
39363;BME280;25088;43.238;23.110;2023-05-24T00:08:51;96250.75;;;14.41;94.64
39363;BME280;25088;43.238;23.110;2023-05-24T00:11:16;96252.44;;;14.37;95.06
39363;BME280;25088;43.238;23.110;2023-05-24T00:13:42;96249.94;;;14.40;94.46
39363;BME280;25088;43.238;23.110;2023-05-24T00:16:07;96243.34;;;14.41;93.76
39363;BME280;25088;43.238;23.110;2023-05-24T00:18:33;96249.91;;;14.45;93.99
39363;BME280;25088;43.238;23.110;2023-05-24T00:20:58;96235.66;;;14.43;94.60
39363;BME280;25088;43.238;23.110;2023-05-24T00:23:24;96229.38;;;14.38;94.01
39363;BME280;25088;43.238;23.110;2023-05-24T00:25:53;96245.22;;;14.46;93.74
39363;BME280;25088;43.238;23.110;2023-05-24T00:28:18;96240.31;;;14.48;94.06
39363;BME280;25088;43.238;23.110;2023-05-24T00:30:44;96237.28;;;14.50;93.31
39363;BME280;25088;43.238;23.110;2023-05-24T00:33:09;96228.75;;;14.46;92.35
39363;BME280;25088;43.238;23.110;2023-05-24T00:35:35;96234.44;;;14.60;92.22
39363;BME280;25088;43.238;23.110;2023-05-24T00:38:00;96229.44;;;14.67;90.93
39363;BME280;25088;43.238;23.110;2023-05-24T00:40:26;96228.28;;;14.73;90.48
39363;BME280;25088;43.238;23.110;2023-05-24T00:42:51;96219.69;;;14.80;89.81
39363;BME280;25088;43.238;23.110;2023-05-24T00:45:17;96221.00;;;14.87;88.48
39363;BME280;25088;43.238;23.110;2023-05-24T00:47:42;96211.34;;;14.90;87.15
39363;BME280;25088;43.238;23.110;2023-05-24T00:50:09;96223.03;;;15.00;85.25
39363;BME280;25088;43.238;23.110;2023-05-24T00:52:38;96231.41;;;15.14;85.11
39363;BME280;25088;43.238;23.110;2023-05-24T00:55:05;96231.34;;;15.19;84.16
39363;BME280;25088;43.238;23.110;2023-05-24T00:57:31;96224.09;;;15.29;82.97
39363;BME280;25088;43.238;23.110;2023-05-24T00:59:57;96223.75;;;15.35;82.48
39363;BME280;25088;43.238;23.110;2023-05-24T01:02:24;96222.56;;;15.41;82.59
39363;BME280;25088;43.238;23.110;2023-05-24T01:04:49;96219.53;;;15.43;82.54
39363;BME280;25088;43.238;23.110;2023-05-24T01:10:19;96225.78;;;15.48;85.32
39363;BME280;25088;43.238;23.110;2023-05-24T01:15:37;96224.84;;;15.34;85.87
39363;BME280;25088;43.238;23.110;2023-05-24T01:18:10;96224.84;;;15.34;87.19
39363;BME280;25088;43.238;23.110;2023-05-24T01:20:40;96225.91;;;15.38;83.28
39363;BME280;25088;43.238;23.110;2023-05-24T01:23:36;96229.06;;;15.50;80.44
39363;BME280;25088;43.238;23.110;2023-05-24T01:26:13;96227.28;;;15.60;80.36
39363;BME280;25088;43.238;23.110;2023-05-24T01:28:42;96213.28;;;15.56;79.13
39363;BME280;25088;43.238;23.110;2023-05-24T01:31:10;96232.69;;;15.70;79.19
39363;BME280;25088;43.238;23.110;2023-05-24T01:33:40;96225.25;;;15.70;80.76
39363;BME280;25088;43.238;23.110;2023-05-24T01:36:06;96226.16;;;15.61;81.14
39363;BME280;25088;43.238;23.110;2023-05-24T01:38:32;96221.53;;;15.56;82.00
39363;BME280;25088;43.238;23.110;2023-05-24T01:41:02;96220.47;;;15.33;83.43
39363;BME280;25088;43.238;23.110;2023-05-24T01:43:36;96230.06;;;15.36;84.56
39363;BME280;25088;43.238;23.110;2023-05-24T01:51:50;96209.34;;;14.95;84.87
39363;BME280;25088;43.238;23.110;2023-05-24T01:54:20;96200.09;;;14.86;85.16
39363;BME280;25088;43.238;23.110;2023-05-24T01:56:47;96195.09;;;14.93;84.57
39363;BME280;25088;43.238;23.110;2023-05-24T01:59:14;96214.91;;;14.90;86.40
39363;BME280;25088;43.238;23.110;2023-05-24T02:01:40;96197.84;;;14.64;88.49
39363;BME280;25088;43.238;23.110;2023-05-24T02:04:06;96209.13;;;14.63;88.99
39363;BME280;25088;43.238;23.110;2023-05-24T02:06:31;96202.94;;;14.47;91.09
39363;BME280;25088;43.238;23.110;2023-05-24T02:08:57;96218.06;;;14.44;92.32
39363;BME280;25088;43.238;23.110;2023-05-24T02:11:22;96217.59;;;14.37;93.30
39363;BME280;25088;43.238;23.110;2023-05-24T02:13:47;96210.47;;;14.31;93.46
39363;BME280;25088;43.238;23.110;2023-05-24T02:16:13;96219.81;;;14.30;92.70
39363;BME280;25088;43.238;23.110;2023-05-24T02:18:38;96213.59;;;14.19;93.38
39363;BME280;25088;43.238;23.110;2023-05-24T02:21:04;96219.56;;;14.27;92.32
39363;BME280;25088;43.238;23.110;2023-05-24T02:23:30;96227.88;;;14.16;93.40
39363;BME280;25088;43.238;23.110;2023-05-24T02:25:55;96220.50;;;14.12;93.50
39363;BME280;25088;43.238;23.110;2023-05-24T02:28:21;96220.00;;;14.05;93.28
39363;BME280;25088;43.238;23.110;2023-05-24T02:30:46;96215.13;;;13.96;93.99
39363;BME280;25088;43.238;23.110;2023-05-24T02:33:12;96221.69;;;14.01;93.74
39363;BME280;25088;43.238;23.110;2023-05-24T02:35:38;96215.66;;;13.99;93.95
39363;BME280;25088;43.238;23.110;2023-05-24T02:38:05;96219.53;;;13.98;93.56
39363;BME280;25088;43.238;23.110;2023-05-24T02:40:31;96222.28;;;13.98;92.67
39363;BME280;25088;43.238;23.110;2023-05-24T02:42:56;96227.94;;;14.06;92.21
39363;BME280;25088;43.238;23.110;2023-05-24T02:45:22;96218.41;;;13.99;92.42
39363;BME280;25088;43.238;23.110;2023-05-24T02:47:47;96229.13;;;13.95;92.49
39363;BME280;25088;43.238;23.110;2023-05-24T02:50:13;96219.31;;;13.89;94.40
39363;BME280;25088;43.238;23.110;2023-05-24T02:52:38;96222.34;;;13.87;93.59
39363;BME280;25088;43.238;23.110;2023-05-24T02:55:04;96225.59;;;13.89;93.20
39363;BME280;25088;43.238;23.110;2023-05-24T02:57:30;96216.03;;;13.82;94.19
39363;BME280;25088;43.238;23.110;2023-05-24T02:59:58;96209.28;;;13.69;94.26
39363;BME280;25088;43.238;23.110;2023-05-24T03:02:24;96226.75;;;13.83;94.52
39363;BME280;25088;43.238;23.110;2023-05-24T03:04:52;96242.44;;;13.78;94.59
39363;BME280;25088;43.238;23.110;2023-05-24T03:07:18;96246.56;;;13.70;95.60
39363;BME280;25088;43.238;23.110;2023-05-24T03:09:43;96241.63;;;13.67;96.87
39363;BME280;25088;43.238;23.110;2023-05-24T03:12:09;96238.38;;;13.60;97.24
39363;BME280;25088;43.238;23.110;2023-05-24T03:14:34;96246.31;;;13.61;97.19
39363;BME280;25088;43.238;23.110;2023-05-24T03:17:00;96252.09;;;13.65;97.77
39363;BME280;25088;43.238;23.110;2023-05-24T03:19:26;96250.94;;;13.71;95.12
39363;BME280;25088;43.238;23.110;2023-05-24T03:21:51;96241.34;;;13.74;95.20
39363;BME280;25088;43.238;23.110;2023-05-24T03:24:17;96244.84;;;13.84;93.85
39363;BME280;25088;43.238;23.110;2023-05-24T03:26:42;96246.16;;;13.92;94.00
39363;BME280;25088;43.238;23.110;2023-05-24T03:29:08;96249.44;;;13.94;94.63
39363;BME280;25088;43.238;23.110;2023-05-24T03:31:33;96248.13;;;13.86;94.49
39363;BME280;25088;43.238;23.110;2023-05-24T03:33:59;96258.25;;;13.91;95.52
39363;BME280;25088;43.238;23.110;2023-05-24T03:36:24;96256.28;;;13.96;93.41
39363;BME280;25088;43.238;23.110;2023-05-24T03:38:52;96249.94;;;14.01;92.66
39363;BME280;25088;43.238;23.110;2023-05-24T03:41:17;96254.25;;;14.17;91.10
39363;BME280;25088;43.238;23.110;2023-05-24T03:43:42;96257.97;;;14.32;90.17
39363;BME280;25088;43.238;23.110;2023-05-24T03:46:08;96257.09;;;14.36;90.77
39363;BME280;25088;43.238;23.110;2023-05-24T03:48:33;96234.16;;;14.22;91.07
39363;BME280;25088;43.238;23.110;2023-05-24T03:50:59;96257.66;;;14.38;90.74
39363;BME280;25088;43.238;23.110;2023-05-24T03:53:24;96253.75;;;14.44;91.25
39363;BME280;25088;43.238;23.110;2023-05-24T03:55:50;96258.72;;;14.47;91.53
39363;BME280;25088;43.238;23.110;2023-05-24T03:58:16;96259.72;;;14.57;92.29
39363;BME280;25088;43.238;23.110;2023-05-24T04:00:41;96263.31;;;14.57;93.96
39363;BME280;25088;43.238;23.110;2023-05-24T04:03:06;96263.59;;;14.56;93.51
39363;BME280;25088;43.238;23.110;2023-05-24T04:05:33;96254.44;;;14.65;94.07
39363;BME280;25088;43.238;23.110;2023-05-24T04:07:59;96248.84;;;14.76;92.51
39363;BME280;25088;43.238;23.110;2023-05-24T04:10:25;96264.72;;;14.84;92.60
39363;BME280;25088;43.238;23.110;2023-05-24T04:12:50;96263.50;;;14.95;92.92
39363;BME280;25088;43.238;23.110;2023-05-24T04:15:16;96267.78;;;15.06;92.22
39363;BME280;25088;43.238;23.110;2023-05-24T04:17:42;96261.34;;;15.16;91.97
39363;BME280;25088;43.238;23.110;2023-05-24T04:20:11;96262.66;;;15.23;91.46
39363;BME280;25088;43.238;23.110;2023-05-24T04:22:37;96268.28;;;15.37;91.01
39363;BME280;25088;43.238;23.110;2023-05-24T04:25:04;96268.44;;;15.46;91.10
39363;BME280;25088;43.238;23.110;2023-05-24T04:27:30;96260.91;;;15.57;91.06
39363;BME280;25088;43.238;23.110;2023-05-24T04:29:55;96256.63;;;15.69;90.47
39363;BME280;25088;43.238;23.110;2023-05-24T04:32:21;96264.69;;;15.85;90.15
39363;BME280;25088;43.238;23.110;2023-05-24T04:34:48;96263.97;;;15.98;89.71
39363;BME280;25088;43.238;23.110;2023-05-24T04:37:14;96264.88;;;16.12;89.60
39363;BME280;25088;43.238;23.110;2023-05-24T04:39:44;96258.59;;;16.25;89.37
39363;BME280;25088;43.238;23.110;2023-05-24T04:42:11;96245.66;;;16.26;88.76
39363;BME280;25088;43.238;23.110;2023-05-24T04:44:38;96265.97;;;16.49;88.71
39363;BME280;25088;43.238;23.110;2023-05-24T04:47:04;96261.00;;;16.65;88.41
39363;BME280;25088;43.238;23.110;2023-05-24T04:49:30;96271.22;;;16.83;86.46
39363;BME280;25088;43.238;23.110;2023-05-24T04:51:56;96271.63;;;16.90;87.07
39363;BME280;25088;43.238;23.110;2023-05-24T04:54:22;96269.72;;;17.04;85.35
39363;BME280;25088;43.238;23.110;2023-05-24T04:56:47;96273.25;;;17.24;84.47
39363;BME280;25088;43.238;23.110;2023-05-24T04:59:13;96270.72;;;17.41;83.20
39363;BME280;25088;43.238;23.110;2023-05-24T05:01:38;96279.41;;;17.62;81.73
39363;BME280;25088;43.238;23.110;2023-05-24T05:04:04;96281.19;;;17.86;80.75
39363;BME280;25088;43.238;23.110;2023-05-24T05:06:30;96263.56;;;17.95;78.88
39363;BME280;25088;43.238;23.110;2023-05-24T05:08:58;96279.47;;;18.26;78.27
39363;BME280;25088;43.238;23.110;2023-05-24T05:11:23;96281.31;;;18.53;77.84
39363;BME280;25088;43.238;23.110;2023-05-24T05:13:50;96263.78;;;18.57;75.13
39363;BME280;25088;43.238;23.110;2023-05-24T05:16:15;96289.78;;;18.93;74.53
39363;BME280;25088;43.238;23.110;2023-05-24T05:18:42;96268.72;;;19.05;73.87
39363;BME280;25088;43.238;23.110;2023-05-24T05:21:07;96284.97;;;19.29;73.80
39363;BME280;25088;43.238;23.110;2023-05-24T05:23:33;96279.94;;;19.31;73.38
39363;BME280;25088;43.238;23.110;2023-05-24T05:25:58;96285.22;;;19.50;72.20
39363;BME280;25088;43.238;23.110;2023-05-24T05:28:24;96274.91;;;19.73;71.69
39363;BME280;25088;43.238;23.110;2023-05-24T05:30:49;96284.06;;;19.82;68.61
39363;BME280;25088;43.238;23.110;2023-05-24T05:33:14;96288.34;;;19.97;72.20
39363;BME280;25088;43.238;23.110;2023-05-24T05:35:40;96283.16;;;20.13;69.32
39363;BME280;25088;43.238;23.110;2023-05-24T05:38:06;96283.66;;;20.24;66.59
39363;BME280;25088;43.238;23.110;2023-05-24T05:40:31;96280.63;;;20.34;66.63
39363;BME280;25088;43.238;23.110;2023-05-24T05:42:57;96289.59;;;20.39;64.93
39363;BME280;25088;43.238;23.110;2023-05-24T05:45:23;96290.94;;;20.59;65.03
39363;BME280;25088;43.238;23.110;2023-05-24T05:47:48;96279.66;;;20.73;63.60
39363;BME280;25088;43.238;23.110;2023-05-24T05:50:14;96296.47;;;20.94;63.08
39363;BME280;25088;43.238;23.110;2023-05-24T05:52:40;96292.50;;;21.12;61.35
39363;BME280;25088;43.238;23.110;2023-05-24T05:55:06;96301.97;;;21.20;62.73
39363;BME280;25088;43.238;23.110;2023-05-24T05:57:32;96292.34;;;21.17;61.36
39363;BME280;25088;43.238;23.110;2023-05-24T05:59:58;96300.19;;;21.24;61.21
39363;BME280;25088;43.238;23.110;2023-05-24T06:02:23;96306.69;;;21.37;61.89
39363;BME280;25088;43.238;23.110;2023-05-24T06:04:49;96307.53;;;21.20;60.41
39363;BME280;25088;43.238;23.110;2023-05-24T06:07:14;96305.06;;;21.36;60.48
39363;BME280;25088;43.238;23.110;2023-05-24T06:09:40;96309.72;;;21.61;59.13
39363;BME280;25088;43.238;23.110;2023-05-24T06:12:05;96308.97;;;21.90;58.83
39363;BME280;25088;43.238;23.110;2023-05-24T06:14:31;96312.53;;;22.00;57.75
39363;BME280;25088;43.238;23.110;2023-05-24T06:16:57;96315.09;;;22.13;57.51
39363;BME280;25088;43.238;23.110;2023-05-24T06:19:22;96318.19;;;22.41;57.54
39363;BME280;25088;43.238;23.110;2023-05-24T06:21:49;96315.78;;;22.61;56.21
39363;BME280;25088;43.238;23.110;2023-05-24T06:24:16;96321.69;;;22.59;55.69
39363;BME280;25088;43.238;23.110;2023-05-24T06:26:50;96315.16;;;22.76;54.93
39363;BME280;25088;43.238;23.110;2023-05-24T06:29:16;96315.19;;;22.97;54.42
39363;BME280;25088;43.238;23.110;2023-05-24T06:31:45;96320.53;;;23.23;53.36
39363;BME280;25088;43.238;23.110;2023-05-24T06:34:12;96310.28;;;23.60;52.48
39363;BME280;25088;43.238;23.110;2023-05-24T06:36:37;96317.38;;;24.03;52.45
39363;BME280;25088;43.238;23.110;2023-05-24T06:39:11;96320.03;;;24.36;50.34
39363;BME280;25088;43.238;23.110;2023-05-24T06:41:38;96327.47;;;24.69;48.95
39363;BME280;25088;43.238;23.110;2023-05-24T06:44:03;96315.56;;;24.84;48.27
39363;BME280;25088;43.238;23.110;2023-05-24T06:46:29;96326.47;;;24.89;48.39
39363;BME280;25088;43.238;23.110;2023-05-24T06:48:55;96329.34;;;25.05;46.95
39363;BME280;25088;43.238;23.110;2023-05-24T06:51:21;96327.69;;;25.44;46.26
39363;BME280;25088;43.238;23.110;2023-05-24T06:53:46;96330.34;;;25.69;45.87
39363;BME280;25088;43.238;23.110;2023-05-24T06:56:12;96329.38;;;25.61;46.00
39363;BME280;25088;43.238;23.110;2023-05-24T06:58:37;96327.16;;;26.14;44.24
39363;BME280;25088;43.238;23.110;2023-05-24T07:01:03;96320.66;;;26.10;44.34
39363;BME280;25088;43.238;23.110;2023-05-24T07:03:30;96320.38;;;26.15;44.56
39363;BME280;25088;43.238;23.110;2023-05-24T07:05:56;96323.63;;;26.33;43.74
39363;BME280;25088;43.238;23.110;2023-05-24T07:08:23;96324.38;;;26.81;43.25
39363;BME280;25088;43.238;23.110;2023-05-24T07:10:48;96317.28;;;26.68;43.40
39363;BME280;25088;43.238;23.110;2023-05-24T07:13:14;96318.97;;;27.08;42.32
39363;BME280;25088;43.238;23.110;2023-05-24T07:15:42;96317.41;;;27.10;41.07
39363;BME280;25088;43.238;23.110;2023-05-24T07:18:07;96309.69;;;27.23;42.02
39363;BME280;25088;43.238;23.110;2023-05-24T07:20:33;96319.91;;;27.54;41.00
39363;BME280;25088;43.238;23.110;2023-05-24T07:23:01;96319.56;;;27.75;39.28
39363;BME280;25088;43.238;23.110;2023-05-24T07:25:27;96323.78;;;28.34;38.50
39363;BME280;25088;43.238;23.110;2023-05-24T07:27:53;96332.16;;;28.30;37.89
39363;BME280;25088;43.238;23.110;2023-05-24T07:30:19;96325.22;;;28.47;38.43
39363;BME280;25088;43.238;23.110;2023-05-24T07:32:44;96321.41;;;28.89;38.18
39363;BME280;25088;43.238;23.110;2023-05-24T07:35:10;96323.09;;;28.94;37.13
39363;BME280;25088;43.238;23.110;2023-05-24T07:37:40;96324.09;;;29.05;37.65
39363;BME280;25088;43.238;23.110;2023-05-24T07:40:07;96332.63;;;28.85;37.65
39363;BME280;25088;43.238;23.110;2023-05-24T07:42:35;96330.50;;;28.79;37.22
39363;BME280;25088;43.238;23.110;2023-05-24T07:45:01;96317.16;;;28.99;36.92
39363;BME280;25088;43.238;23.110;2023-05-24T07:47:27;96323.41;;;29.49;37.08
39363;BME280;25088;43.238;23.110;2023-05-24T07:49:52;96330.53;;;29.69;35.30
39363;BME280;25088;43.238;23.110;2023-05-24T07:52:18;96329.25;;;30.00;35.55
39363;BME280;25088;43.238;23.110;2023-05-24T07:54:44;96315.38;;;30.22;35.04
39363;BME280;25088;43.238;23.110;2023-05-24T07:57:10;96327.34;;;30.56;34.40
39363;BME280;25088;43.238;23.110;2023-05-24T07:59:36;96326.31;;;30.75;34.62
39363;BME280;25088;43.238;23.110;2023-05-24T08:02:02;96323.91;;;30.80;34.29
39363;BME280;25088;43.238;23.110;2023-05-24T08:04:30;96329.22;;;30.89;34.46
39363;BME280;25088;43.238;23.110;2023-05-24T08:06:56;96323.19;;;30.98;34.38
39363;BME280;25088;43.238;23.110;2023-05-24T08:09:22;96328.19;;;31.26;34.87
39363;BME280;25088;43.238;23.110;2023-05-24T08:11:47;96332.31;;;31.39;33.85
39363;BME280;25088;43.238;23.110;2023-05-24T08:14:13;96326.69;;;31.43;35.16
39363;BME280;25088;43.238;23.110;2023-05-24T08:16:38;96325.25;;;31.88;34.55
39363;BME280;25088;43.238;23.110;2023-05-24T08:19:04;96332.34;;;31.46;35.24
39363;BME280;25088;43.238;23.110;2023-05-24T08:21:29;96322.75;;;31.72;34.84
39363;BME280;25088;43.238;23.110;2023-05-24T08:23:55;96318.44;;;32.14;35.24
39363;BME280;25088;43.238;23.110;2023-05-24T08:26:21;96319.28;;;32.39;33.20
39363;BME280;25088;43.238;23.110;2023-05-24T08:28:48;96319.25;;;32.61;32.40
39363;BME280;25088;43.238;23.110;2023-05-24T08:31:14;96304.66;;;31.87;33.17
39363;BME280;25088;43.238;23.110;2023-05-24T08:33:39;96318.50;;;32.42;32.00
39363;BME280;25088;43.238;23.110;2023-05-24T08:36:05;96321.28;;;32.78;31.97
39363;BME280;25088;43.238;23.110;2023-05-24T08:38:31;96327.38;;;32.37;31.31
39363;BME280;25088;43.238;23.110;2023-05-24T08:40:56;96319.69;;;32.56;30.92
39363;BME280;25088;43.238;23.110;2023-05-24T08:43:22;96326.53;;;32.65;30.51
39363;BME280;25088;43.238;23.110;2023-05-24T08:45:49;96309.16;;;32.92;28.29
39363;BME280;25088;43.238;23.110;2023-05-24T08:48:16;96323.28;;;32.92;29.30
39363;BME280;25088;43.238;23.110;2023-05-24T08:50:43;96315.59;;;33.00;30.14
39363;BME280;25088;43.238;23.110;2023-05-24T08:53:09;96315.53;;;33.28;30.02
39363;BME280;25088;43.238;23.110;2023-05-24T08:55:36;96315.50;;;33.42;29.31
39363;BME280;25088;43.238;23.110;2023-05-24T08:58:02;96317.81;;;33.65;28.70
39363;BME280;25088;43.238;23.110;2023-05-24T09:00:29;96322.28;;;33.63;29.32
39363;BME280;25088;43.238;23.110;2023-05-24T09:02:56;96312.19;;;33.62;29.13
39363;BME280;25088;43.238;23.110;2023-05-24T09:05:22;96311.03;;;34.22;30.10
39363;BME280;25088;43.238;23.110;2023-05-24T09:07:50;96314.84;;;32.60;30.25
39363;BME280;25088;43.238;23.110;2023-05-24T09:10:18;96327.03;;;33.80;30.50
39363;BME280;25088;43.238;23.110;2023-05-24T09:12:47;96321.16;;;34.16;30.11
39363;BME280;25088;43.238;23.110;2023-05-24T09:15:15;96317.66;;;33.98;30.98
39363;BME280;25088;43.238;23.110;2023-05-24T09:17:41;96317.84;;;33.55;30.94
39363;BME280;25088;43.238;23.110;2023-05-24T09:20:08;96313.69;;;33.81;30.06
39363;BME280;25088;43.238;23.110;2023-05-24T09:22:34;96313.75;;;33.66;30.89
39363;BME280;25088;43.238;23.110;2023-05-24T09:25:03;96323.97;;;33.32;31.75
39363;BME280;25088;43.238;23.110;2023-05-24T09:27:31;96329.16;;;33.62;31.88
39363;BME280;25088;43.238;23.110;2023-05-24T09:29:57;96316.53;;;33.77;31.29
39363;BME280;25088;43.238;23.110;2023-05-24T09:32:23;96320.75;;;33.37;31.29
39363;BME280;25088;43.238;23.110;2023-05-24T09:34:52;96312.19;;;33.62;31.81
39363;BME280;25088;43.238;23.110;2023-05-24T09:37:22;96318.75;;;33.30;32.25
39363;BME280;25088;43.238;23.110;2023-05-24T09:39:49;96314.03;;;32.45;32.98
39363;BME280;25088;43.238;23.110;2023-05-24T09:42:19;96318.88;;;32.52;32.52
39363;BME280;25088;43.238;23.110;2023-05-24T09:45:08;96321.25;;;32.25;32.88
39363;BME280;25088;43.238;23.110;2023-05-24T09:47:36;96316.38;;;33.18;32.21
39363;BME280;25088;43.238;23.110;2023-05-24T09:50:04;96313.38;;;33.64;31.00
39363;BME280;25088;43.238;23.110;2023-05-24T09:52:31;96317.09;;;33.36;31.83
39363;BME280;25088;43.238;23.110;2023-05-24T09:54:56;96317.63;;;32.88;31.22
39363;BME280;25088;43.238;23.110;2023-05-24T09:57:21;96303.44;;;33.10;31.34
39363;BME280;25088;43.238;23.110;2023-05-24T09:59:48;96309.41;;;33.40;31.22
39363;BME280;25088;43.238;23.110;2023-05-24T10:02:14;96309.44;;;33.33;30.33
39363;BME280;25088;43.238;23.110;2023-05-24T10:04:43;96308.88;;;33.74;30.27
39363;BME280;25088;43.238;23.110;2023-05-24T10:07:09;96292.59;;;33.92;30.51
39363;BME280;25088;43.238;23.110;2023-05-24T10:09:36;96311.78;;;34.26;29.47
39363;BME280;25088;43.238;23.110;2023-05-24T10:12:06;96301.00;;;34.62;29.10
39363;BME280;25088;43.238;23.110;2023-05-24T10:14:35;96298.63;;;34.54;29.53
39363;BME280;25088;43.238;23.110;2023-05-24T10:17:03;96311.06;;;34.11;29.45
39363;BME280;25088;43.238;23.110;2023-05-24T10:19:33;96306.19;;;34.15;29.55
39363;BME280;25088;43.238;23.110;2023-05-24T10:21:59;96298.56;;;34.61;30.12
39363;BME280;25088;43.238;23.110;2023-05-24T10:24:32;96306.81;;;34.41;28.71
39363;BME280;25088;43.238;23.110;2023-05-24T10:27:02;96306.97;;;34.19;29.91
39363;BME280;25088;43.238;23.110;2023-05-24T10:29:35;96308.09;;;34.36;29.78
39363;BME280;25088;43.238;23.110;2023-05-24T10:32:04;96300.69;;;33.94;29.22
39363;BME280;25088;43.238;23.110;2023-05-24T10:34:31;96291.81;;;34.40;29.11
39363;BME280;25088;43.238;23.110;2023-05-24T10:36:57;96294.97;;;35.02;29.17
39363;BME280;25088;43.238;23.110;2023-05-24T10:39:23;96288.84;;;34.62;27.89
39363;BME280;25088;43.238;23.110;2023-05-24T10:41:49;96292.53;;;35.00;27.61
39363;BME280;25088;43.238;23.110;2023-05-24T10:44:17;96293.50;;;34.34;28.60
39363;BME280;25088;43.238;23.110;2023-05-24T10:47:09;96291.34;;;34.56;27.61
39363;BME280;25088;43.238;23.110;2023-05-24T10:49:36;96282.53;;;34.85;28.21
39363;BME280;25088;43.238;23.110;2023-05-24T10:52:07;96282.72;;;34.15;27.90
39363;BME280;25088;43.238;23.110;2023-05-24T10:54:33;96280.91;;;34.42;27.36
39363;BME280;25088;43.238;23.110;2023-05-24T10:57:01;96282.75;;;34.63;28.43
39363;BME280;25088;43.238;23.110;2023-05-24T10:59:30;96284.47;;;34.54;27.37
39363;BME280;25088;43.238;23.110;2023-05-24T11:01:59;96271.91;;;34.55;27.13
39363;BME280;25088;43.238;23.110;2023-05-24T11:04:31;96275.03;;;34.67;27.81
39363;BME280;25088;43.238;23.110;2023-05-24T11:07:01;96282.34;;;34.13;28.55
39363;BME280;25088;43.238;23.110;2023-05-24T11:09:28;96282.88;;;33.86;28.45
39363;BME280;25088;43.238;23.110;2023-05-24T11:11:56;96275.53;;;34.03;27.63
39363;BME280;25088;43.238;23.110;2023-05-24T11:14:26;96272.34;;;33.98;28.35
39363;BME280;25088;43.238;23.110;2023-05-24T11:16:53;96282.34;;;34.13;28.13
39363;BME280;25088;43.238;23.110;2023-05-24T11:19:28;96276.16;;;34.29;27.43
39363;BME280;25088;43.238;23.110;2023-05-24T11:21:56;96268.63;;;35.01;27.60
39363;BME280;25088;43.238;23.110;2023-05-24T11:24:26;96263.19;;;35.14;26.87
39363;BME280;25088;43.238;23.110;2023-05-24T11:26:52;96270.56;;;35.42;27.27
39363;BME280;25088;43.238;23.110;2023-05-24T11:29:18;96282.88;;;34.90;27.07
39363;BME280;25088;43.238;23.110;2023-05-24T11:31:50;96267.97;;;34.41;27.97
39363;BME280;25088;43.238;23.110;2023-05-24T11:34:17;96264.34;;;34.82;27.73
39363;BME280;25088;43.238;23.110;2023-05-24T11:36:43;96285.06;;;34.27;28.01
39363;BME280;25088;43.238;23.110;2023-05-24T11:39:09;96272.97;;;34.23;28.09
39363;BME280;25088;43.238;23.110;2023-05-24T11:41:36;96252.69;;;34.25;28.59
39363;BME280;25088;43.238;23.110;2023-05-24T11:44:02;96265.31;;;34.65;27.65
39363;BME280;25088;43.238;23.110;2023-05-24T11:46:27;96257.53;;;34.28;27.72
39363;BME280;25088;43.238;23.110;2023-05-24T11:48:56;96265.63;;;34.26;27.60
39363;BME280;25088;43.238;23.110;2023-05-24T11:51:29;96268.00;;;33.79;28.13
39363;BME280;25088;43.238;23.110;2023-05-24T11:53:58;96255.69;;;34.55;27.85
39363;BME280;25088;43.238;23.110;2023-05-24T11:56:25;96253.69;;;34.97;26.90
39363;BME280;25088;43.238;23.110;2023-05-24T12:01:44;96253.59;;;35.01;26.99
39363;BME280;25088;43.238;23.110;2023-05-24T12:04:09;96261.25;;;35.07;26.77
39363;BME280;25088;43.238;23.110;2023-05-24T12:06:40;96247.13;;;35.00;27.02
39363;BME280;25088;43.238;23.110;2023-05-24T12:09:07;96260.06;;;33.52;28.34
39363;BME280;25088;43.238;23.110;2023-05-24T12:11:44;96275.25;;;32.17;30.40
39363;BME280;25088;43.238;23.110;2023-05-24T12:14:12;96268.22;;;30.63;31.40
39363;BME280;25088;43.238;23.110;2023-05-24T12:16:37;96264.06;;;30.43;32.23
39363;BME280;25088;43.238;23.110;2023-05-24T12:19:03;96260.28;;;30.21;32.37
39363;BME280;25088;43.238;23.110;2023-05-24T12:21:30;96269.72;;;31.12;31.93
39363;BME280;25088;43.238;23.110;2023-05-24T12:23:56;96252.66;;;32.46;29.70
39363;BME280;25088;43.238;23.110;2023-05-24T12:26:21;96241.31;;;32.67;29.52
39363;BME280;25088;43.238;23.110;2023-05-24T12:28:52;96244.50;;;32.98;29.10
39363;BME280;25088;43.238;23.110;2023-05-24T12:31:21;96255.38;;;31.56;31.06
39363;BME280;25088;43.238;23.110;2023-05-24T12:33:46;96254.84;;;31.22;31.62
39363;BME280;25088;43.238;23.110;2023-05-24T12:36:12;96252.63;;;31.78;31.24
39363;BME280;25088;43.238;23.110;2023-05-24T12:38:37;96252.25;;;32.15;30.40
39363;BME280;25088;43.238;23.110;2023-05-24T12:41:04;96219.44;;;32.96;29.83
39363;BME280;25088;43.238;23.110;2023-05-24T12:43:30;96230.22;;;33.26;28.86
39363;BME280;25088;43.238;23.110;2023-05-24T12:45:56;96230.69;;;33.94;28.08
39363;BME280;25088;43.238;23.110;2023-05-24T12:48:21;96231.16;;;34.34;27.94
39363;BME280;25088;43.238;23.110;2023-05-24T12:50:47;96228.84;;;33.63;29.13
39363;BME280;25088;43.238;23.110;2023-05-24T12:53:13;96232.19;;;34.10;27.21
39363;BME280;25088;43.238;23.110;2023-05-24T12:55:38;96237.00;;;33.54;28.06
39363;BME280;25088;43.238;23.110;2023-05-24T12:58:04;96232.06;;;32.56;28.70
39363;BME280;25088;43.238;23.110;2023-05-24T13:00:32;96236.47;;;31.71;30.17
39363;BME280;25088;43.238;23.110;2023-05-24T13:02:58;96230.13;;;30.83;32.52